createdAt,value
2023-01-07T00:01:06.312Z,3.91
2023-01-07T00:03:34.737Z,3.98
2023-01-07T00:06:03.690Z,4.01
2023-01-07T00:08:32.525Z,4.03
2023-01-07T00:11:02.804Z,4.00
2023-01-07T00:13:30.827Z,3.77
2023-01-07T00:15:59.677Z,3.74
2023-01-07T00:18:29.197Z,3.74
2023-01-07T00:20:58.799Z,3.72
2023-01-07T00:23:27.193Z,3.70
2023-01-07T00:26:02.065Z,3.69
2023-01-07T00:28:30.070Z,3.63
2023-01-07T00:31:01.289Z,3.54
2023-01-07T00:33:31.185Z,3.47
2023-01-07T00:36:03.194Z,3.49
2023-01-07T00:38:31.198Z,3.39
2023-01-07T00:40:59.289Z,3.41
2023-01-07T00:43:27.679Z,3.43
2023-01-07T00:45:55.842Z,3.49
2023-01-07T00:48:24.117Z,3.53
2023-01-07T00:50:54.493Z,3.33
2023-01-07T00:53:22.983Z,3.57
2023-01-07T00:55:51.937Z,3.66
2023-01-07T00:58:22.277Z,3.62
2023-01-07T01:00:50.721Z,3.56
2023-01-07T01:03:18.829Z,3.44
2023-01-07T01:05:46.953Z,3.44
2023-01-07T01:08:17.997Z,3.52
2023-01-07T01:10:46.182Z,3.51
2023-01-07T01:13:18.097Z,3.62
2023-01-07T01:15:47.436Z,3.61
2023-01-07T01:18:16.508Z,3.46
2023-01-07T01:20:44.530Z,3.37
2023-01-07T01:23:12.582Z,3.37
2023-01-07T01:25:41.965Z,3.36
2023-01-07T01:28:09.953Z,3.14
2023-01-07T01:30:38.106Z,3.15
2023-01-07T01:33:06.125Z,3.10
2023-01-07T01:35:34.064Z,2.92
2023-01-07T01:38:02.240Z,3.14
2023-01-07T01:40:32.815Z,3.19
2023-01-07T01:43:02.275Z,3.19
2023-01-07T01:45:31.251Z,3.21
2023-01-07T01:48:04.434Z,3.16
2023-01-07T01:50:38.350Z,3.01
2023-01-07T01:53:11.953Z,3.22
2023-01-07T01:55:44.665Z,3.22
2023-01-07T01:58:17.556Z,3.23
2023-01-07T02:00:46.035Z,3.18
2023-01-07T02:03:17.830Z,3.19
2023-01-07T02:05:47.403Z,3.23
2023-01-07T02:08:21.972Z,3.22
2023-01-07T02:10:59.543Z,3.20
2023-01-07T02:13:39.124Z,3.16
2023-01-07T02:16:17.978Z,3.18
2023-01-07T02:19:16.487Z,3.21
2023-01-07T02:21:57.208Z,3.21
2023-01-07T02:24:55.044Z,3.23
2023-01-07T02:27:46.293Z,3.15
2023-01-07T02:30:41.087Z,3.14
2023-01-07T02:33:38.802Z,3.18
2023-01-07T02:36:16.995Z,3.19
2023-01-07T02:39:01.843Z,3.12
2023-01-07T02:41:40.453Z,3.05
2023-01-07T02:44:21.290Z,3.10
2023-01-07T02:46:57.231Z,3.07
2023-01-07T02:49:25.209Z,3.01
2023-01-07T02:51:54.580Z,2.95
2023-01-07T02:54:25.292Z,2.83
2023-01-07T02:57:33.306Z,2.83
2023-01-07T03:00:15.071Z,2.72
2023-01-07T03:03:03.000Z,2.83
2023-01-07T03:05:58.634Z,2.69
2023-01-07T03:08:44.254Z,2.71
2023-01-07T03:11:13.285Z,2.58
2023-01-07T03:13:48.547Z,2.69
2023-01-07T03:16:22.972Z,2.58
2023-01-07T03:18:57.073Z,2.48
2023-01-07T03:21:28.729Z,2.16
2023-01-07T03:23:59.994Z,2.20
2023-01-07T03:26:32.411Z,2.28
2023-01-07T03:29:02.991Z,2.26
2023-01-07T03:31:32.365Z,2.32
2023-01-07T03:34:04.805Z,2.55
2023-01-07T03:36:38.123Z,2.64
2023-01-07T03:39:10.800Z,2.72
2023-01-07T03:41:53.735Z,2.62
2023-01-07T03:44:21.882Z,2.66
2023-01-07T03:46:50.159Z,2.69
2023-01-07T03:49:18.200Z,2.69
2023-01-07T03:51:46.710Z,2.66
2023-01-07T03:54:16.204Z,2.66
2023-01-07T03:56:44.366Z,2.50
2023-01-07T03:59:12.440Z,2.62
2023-01-07T04:01:40.524Z,2.51
2023-01-07T04:04:08.727Z,2.50
2023-01-07T04:06:36.741Z,2.46
2023-01-07T04:09:04.969Z,2.44
2023-01-07T04:11:34.387Z,2.40
2023-01-07T04:14:02.441Z,2.29
2023-01-07T04:16:30.677Z,2.28
2023-01-07T04:18:58.745Z,2.36
2023-01-07T04:21:26.743Z,2.38
2023-01-07T04:23:54.708Z,2.25
2023-01-07T04:26:22.670Z,2.36
2023-01-07T04:28:52.024Z,2.26
2023-01-07T04:31:20.105Z,2.33
2023-01-07T04:33:48.108Z,2.45
2023-01-07T04:36:16.490Z,2.51
2023-01-07T04:38:44.473Z,2.50
2023-01-07T04:41:12.407Z,2.68
2023-01-07T04:43:40.363Z,2.59
2023-01-07T04:46:09.906Z,2.53
2023-01-07T04:48:37.978Z,2.62
2023-01-07T04:51:06.221Z,2.74
2023-01-07T04:53:34.286Z,2.76
2023-01-07T04:56:02.244Z,2.80
2023-01-07T04:58:30.234Z,2.82
2023-01-07T05:00:59.915Z,2.54
2023-01-07T05:03:29.304Z,2.63
2023-01-07T05:05:57.368Z,2.73
2023-01-07T05:08:25.389Z,2.87
2023-01-07T05:10:54.240Z,2.80
2023-01-07T05:13:24.200Z,2.94
2023-01-07T05:15:52.171Z,2.82
2023-01-07T05:18:20.165Z,2.82
2023-01-07T05:20:49.543Z,2.92
2023-01-07T05:23:17.527Z,3.05
2023-01-07T05:25:45.583Z,3.21
2023-01-07T05:28:13.546Z,3.30
2023-01-07T05:30:41.557Z,3.30
2023-01-07T05:33:09.598Z,3.28
2023-01-07T05:35:37.665Z,3.15
2023-01-07T05:38:07.154Z,3.11
2023-01-07T05:40:35.287Z,3.19
2023-01-07T05:43:03.363Z,3.26
2023-01-07T05:45:31.473Z,2.53
2023-01-07T05:47:59.530Z,2.10
2023-01-07T05:50:27.648Z,2.40
2023-01-07T05:52:55.634Z,2.51
2023-01-07T05:55:25.052Z,2.62
2023-01-07T05:57:53.000Z,2.63
2023-01-07T06:00:21.145Z,2.67
2023-01-07T06:02:49.124Z,2.36
2023-01-07T06:05:17.187Z,2.50
2023-01-07T06:07:45.158Z,2.47
2023-01-07T06:10:13.164Z,2.56
2023-01-07T06:12:44.922Z,2.56
2023-01-07T06:15:13.165Z,2.61
2023-01-07T06:17:41.233Z,2.66
2023-01-07T06:20:10.197Z,2.58
2023-01-07T06:22:38.210Z,2.36
2023-01-07T06:25:06.855Z,2.13
2023-01-07T06:27:34.827Z,1.81
2023-01-07T06:30:04.600Z,2.17
2023-01-07T06:32:32.799Z,2.25
2023-01-07T06:35:00.762Z,2.20
2023-01-07T06:37:28.764Z,2.25
2023-01-07T06:39:58.235Z,2.25
2023-01-07T06:42:26.343Z,2.04
2023-01-07T06:44:54.509Z,2.17
2023-01-07T06:47:28.222Z,2.29
2023-01-07T06:49:56.405Z,2.23
2023-01-07T06:52:25.300Z,2.28
2023-01-07T06:54:53.928Z,2.33
2023-01-07T06:57:25.288Z,2.50
2023-01-07T06:59:54.096Z,2.58
2023-01-07T07:02:25.667Z,2.18
2023-01-07T07:04:54.681Z,2.31
2023-01-07T07:07:24.139Z,2.40
2023-01-07T07:09:52.771Z,2.51
2023-01-07T07:12:23.436Z,2.55
2023-01-07T07:14:51.905Z,2.51
2023-01-07T07:17:20.806Z,2.52
2023-01-07T07:19:51.142Z,2.59
2023-01-07T07:22:20.260Z,2.54
2023-01-07T07:24:49.136Z,2.65
2023-01-07T07:27:20.837Z,2.63
2023-01-07T07:29:49.686Z,2.68
2023-01-07T07:32:18.264Z,2.80
2023-01-07T07:34:46.704Z,2.63
2023-01-07T07:37:19.403Z,2.11
2023-01-07T07:39:48.150Z,2.27
2023-01-07T07:42:16.776Z,2.47
2023-01-07T07:44:45.596Z,2.41
2023-01-07T07:47:15.634Z,2.68
2023-01-07T07:49:43.641Z,2.35
2023-01-07T07:52:12.013Z,2.56
2023-01-07T07:54:50.553Z,2.69
2023-01-07T07:57:18.799Z,2.89
2023-01-07T07:59:46.786Z,2.99
2023-01-07T08:02:15.666Z,2.97
2023-01-07T08:04:46.059Z,2.77
2023-01-07T08:07:15.231Z,2.84
2023-01-07T08:10:02.416Z,3.00
2023-01-07T08:12:30.503Z,2.95
2023-01-07T08:14:58.505Z,2.88
2023-01-07T08:17:26.508Z,2.90
2023-01-07T08:19:54.484Z,3.08
2023-01-07T08:22:22.437Z,3.13
2023-01-07T08:24:50.460Z,3.05
2023-01-07T08:27:20.032Z,3.04
2023-01-07T08:29:48.072Z,3.23
2023-01-07T08:32:16.427Z,3.30
2023-01-07T08:34:44.504Z,3.35
2023-01-07T08:37:15.277Z,3.46
2023-01-07T08:39:43.360Z,3.55
2023-01-07T08:42:11.567Z,3.80
2023-01-07T08:44:40.952Z,3.83
2023-01-07T08:47:08.971Z,3.80
2023-01-07T08:49:37.204Z,3.66
2023-01-07T08:52:05.551Z,3.69
2023-01-07T08:54:33.569Z,3.92
2023-01-07T08:57:01.717Z,4.15
2023-01-07T08:59:29.780Z,4.19
2023-01-07T09:01:59.298Z,4.36
2023-01-07T09:04:27.488Z,4.64
2023-01-07T09:06:55.613Z,4.94
2023-01-07T09:09:23.598Z,4.88
2023-01-07T09:11:51.593Z,4.87
2023-01-07T09:14:19.738Z,5.01
2023-01-07T09:16:47.928Z,5.29
2023-01-07T09:19:17.709Z,5.75
2023-01-07T09:21:47.285Z,6.03
2023-01-07T09:24:15.280Z,6.14
2023-01-07T09:26:43.782Z,6.28
2023-01-07T09:29:12.137Z,6.49
2023-01-07T09:31:40.216Z,6.74
2023-01-07T09:34:08.425Z,6.89
2023-01-07T09:36:37.812Z,7.03
2023-01-07T09:39:05.839Z,6.89
2023-01-07T09:41:42.655Z,6.80
2023-01-07T09:44:20.161Z,6.96
2023-01-07T09:46:51.402Z,7.13
2023-01-07T09:49:20.551Z,7.38
2023-01-07T09:51:55.805Z,7.57
2023-01-07T09:54:30.776Z,7.77
2023-01-07T09:56:58.949Z,7.88
2023-01-07T09:59:27.076Z,7.90
2023-01-07T10:02:01.737Z,8.01
2023-01-07T10:04:39.395Z,8.23
2023-01-07T10:07:25.031Z,8.34
2023-01-07T10:10:06.348Z,8.42
2023-01-07T10:12:41.837Z,8.32
2023-01-07T10:15:24.134Z,8.35
2023-01-07T10:18:06.871Z,8.75
2023-01-07T10:20:45.347Z,9.02
2023-01-07T10:23:21.750Z,9.34
2023-01-07T10:25:52.119Z,9.65
2023-01-07T10:28:24.047Z,9.84
2023-01-07T10:30:53.039Z,10.06
2023-01-07T10:33:25.393Z,10.24
2023-01-07T10:36:02.475Z,10.27
2023-01-07T10:38:36.406Z,10.26
2023-01-07T10:41:13.965Z,10.14
2023-01-07T10:46:48.763Z,10.36
2023-01-07T10:49:31.606Z,10.23
2023-01-07T10:52:13.817Z,10.32
2023-01-07T10:55:04.514Z,10.42
2023-01-07T10:57:36.064Z,10.45
2023-01-07T11:00:08.008Z,10.57
2023-01-07T11:02:36.035Z,10.66
2023-01-07T11:05:04.330Z,10.60
2023-01-07T12:12:34.699Z,11.26
2023-01-07T12:15:23.934Z,11.41
2023-01-07T12:18:49.509Z,11.18
2023-01-07T12:21:48.331Z,11.39
2023-01-07T12:24:56.781Z,11.31
2023-01-07T12:27:57.693Z,11.40
2023-01-07T12:31:07.696Z,11.55
2023-01-07T12:34:05.998Z,11.56
2023-01-07T12:38:55.626Z,11.09
2023-01-07T12:41:31.471Z,11.21
2023-01-07T12:44:03.697Z,11.33
2023-01-07T12:46:40.130Z,11.16
2023-01-07T12:49:14.167Z,11.23
2023-01-07T12:51:46.588Z,11.33
2023-01-07T12:54:21.396Z,11.37
2023-01-07T12:56:54.757Z,11.44
2023-01-07T12:59:45.579Z,11.29
2023-01-07T13:02:25.091Z,11.09
2023-01-07T13:05:04.913Z,11.00
2023-01-07T13:07:40.112Z,10.96
2023-01-07T13:10:17.708Z,10.93
2023-01-07T13:12:47.492Z,10.89
2023-01-07T13:15:26.864Z,10.93
2023-01-07T13:17:57.059Z,10.92
2023-01-07T13:20:53.912Z,10.94
2023-01-07T13:23:27.082Z,10.68
2023-01-07T13:26:20.915Z,10.69
2023-01-07T13:29:03.807Z,10.78
2023-01-07T13:32:24.747Z,10.99
2023-01-07T13:35:26.136Z,11.22
2023-01-07T13:38:14.495Z,11.46
2023-01-07T13:41:01.585Z,11.26
2023-01-07T13:43:43.639Z,11.30
2023-01-07T13:46:14.806Z,11.07
2023-01-07T13:48:49.645Z,11.47
2023-01-07T13:51:25.124Z,11.76
2023-01-07T13:53:53.252Z,12.08
2023-01-07T13:56:36.752Z,12.21
2023-01-07T13:59:30.072Z,12.29
2023-01-07T14:02:22.088Z,12.23
2023-01-07T14:05:04.260Z,12.15
2023-01-07T14:07:32.929Z,12.23
2023-01-07T14:10:00.971Z,12.20
2023-01-07T14:13:07.967Z,12.24
2023-01-07T14:16:06.293Z,12.16
2023-01-07T14:18:46.187Z,12.30
2023-01-07T14:21:36.856Z,12.35
2023-01-07T14:24:33.194Z,12.46
2023-01-07T14:27:11.559Z,12.50
2023-01-07T14:29:42.917Z,12.48
2023-01-07T14:32:27.009Z,12.52
2023-01-07T14:34:57.916Z,12.51
2023-01-07T14:37:35.563Z,12.61
2023-01-07T14:40:42.784Z,12.67
2023-01-07T14:43:48.052Z,12.63
2023-01-07T14:46:45.497Z,12.67
2023-01-07T14:50:04.184Z,12.65
2023-01-07T14:53:17.404Z,12.51
2023-01-07T14:56:02.120Z,12.39
2023-01-07T14:58:42.562Z,12.49
2023-01-07T15:01:38.059Z,12.48
2023-01-07T15:04:55.250Z,12.44
2023-01-07T15:07:28.087Z,12.36
2023-01-07T15:10:18.731Z,12.31
2023-01-07T15:13:09.003Z,12.13
2023-01-07T15:15:59.144Z,12.16
2023-01-07T15:18:27.235Z,12.17
2023-01-07T15:21:09.139Z,12.01
2023-01-07T15:23:46.517Z,12.00
2023-01-07T15:26:22.202Z,11.86
2023-01-07T15:28:56.019Z,11.76
2023-01-07T15:31:30.269Z,11.78
2023-01-07T15:34:11.945Z,11.63
2023-01-07T15:36:43.539Z,11.67
2023-01-07T15:39:20.774Z,11.79
2023-01-07T15:41:52.561Z,11.83
2023-01-07T15:44:24.639Z,11.85
2023-01-07T15:46:52.779Z,11.85
2023-01-07T15:49:23.628Z,11.88
2023-01-07T15:51:54.688Z,11.82
2023-01-07T15:54:35.421Z,11.77
2023-01-07T15:57:09.574Z,11.63
2023-01-07T15:59:42.608Z,11.62
2023-01-07T16:02:24.560Z,11.53
2023-01-07T16:04:57.112Z,11.44
2023-01-07T16:07:29.243Z,11.47
2023-01-07T16:09:58.677Z,11.20
2023-01-07T16:12:34.483Z,11.34
2023-01-07T16:15:04.693Z,11.34
2023-01-07T16:17:33.180Z,11.27
2023-01-07T16:20:11.449Z,11.29
2023-01-07T16:22:41.891Z,11.22
2023-01-07T16:25:15.220Z,11.23
2023-01-07T16:27:45.025Z,11.15
2023-01-07T16:30:16.323Z,11.10
2023-01-07T16:32:45.408Z,10.91
2023-01-07T16:35:19.832Z,10.75
2023-01-07T16:37:50.069Z,10.06
2023-01-07T16:40:24.049Z,10.29
2023-01-07T16:42:53.699Z,10.20
2023-01-07T16:45:28.386Z,9.65
2023-01-07T16:48:20.085Z,10.19
2023-01-07T16:50:49.931Z,10.05
2023-01-07T16:53:27.875Z,10.06
2023-01-07T16:56:10.748Z,10.35
2023-01-07T16:58:42.784Z,10.24
2023-01-07T17:01:12.133Z,10.40
2023-01-07T17:03:52.750Z,10.52
2023-01-07T17:06:25.876Z,10.55
2023-01-07T17:08:56.589Z,10.57
2023-01-07T17:11:30.688Z,10.53
2023-01-07T17:14:00.409Z,10.47
2023-01-07T17:16:33.047Z,10.43
2023-01-07T17:19:25.643Z,10.38
2023-01-07T17:21:54.391Z,9.89
2023-01-07T17:24:47.629Z,9.93
2023-01-07T17:27:26.980Z,9.99
2023-01-07T17:29:57.420Z,9.94
2023-01-07T17:32:25.505Z,10.04
2023-01-07T17:34:53.489Z,10.08
2023-01-07T17:37:21.596Z,10.08
2023-01-07T17:39:51.326Z,10.05
2023-01-07T17:42:42.385Z,9.89
2023-01-07T17:45:17.238Z,9.70
2023-01-07T17:47:46.456Z,9.76
2023-01-07T17:50:16.092Z,9.83
2023-01-07T17:52:46.897Z,9.49
2023-01-07T17:55:16.789Z,9.71
2023-01-07T17:57:45.160Z,9.93
2023-01-07T18:00:21.058Z,9.56
2023-01-07T18:02:49.638Z,9.75
2023-01-07T18:05:19.940Z,9.85
2023-01-07T18:07:48.564Z,9.78
2023-01-07T18:10:18.660Z,10.00
2023-01-07T18:12:46.304Z,10.13
2023-01-07T18:15:25.153Z,10.28
2023-01-07T18:17:54.070Z,9.80
2023-01-07T18:20:23.520Z,9.96
2023-01-07T18:22:54.398Z,9.58
2023-01-07T18:25:23.808Z,9.66
2023-01-07T18:27:53.284Z,9.90
2023-01-07T18:30:23.925Z,10.01
2023-01-07T18:32:53.886Z,9.84
2023-01-07T18:35:24.947Z,9.97
2023-01-07T18:37:53.340Z,10.05
2023-01-07T18:40:21.908Z,9.76
2023-01-07T18:42:50.606Z,9.77
2023-01-07T18:45:18.936Z,10.00
2023-01-07T18:47:48.595Z,10.20
2023-01-07T18:50:17.697Z,10.27
2023-01-07T18:52:45.680Z,10.20
2023-01-07T18:55:16.104Z,10.27
2023-01-07T18:57:44.401Z,10.28
2023-01-07T19:00:13.664Z,10.17
2023-01-07T19:02:42.001Z,9.87
2023-01-07T19:05:11.550Z,9.78
2023-01-07T19:07:39.679Z,10.01
2023-01-07T19:10:08.611Z,9.61
2023-01-07T19:12:36.630Z,9.66
2023-01-07T19:15:05.013Z,9.91
2023-01-07T19:17:33.090Z,10.05
2023-01-07T19:20:01.886Z,10.11
2023-01-07T19:22:31.283Z,10.20
2023-01-07T19:24:59.227Z,10.09
2023-01-07T19:27:27.287Z,10.00
2023-01-07T19:29:55.254Z,10.09
2023-01-07T19:32:23.354Z,10.13
2023-01-07T19:34:52.985Z,10.15
2023-01-07T19:37:22.087Z,10.09
2023-01-07T19:39:51.653Z,10.02
2023-01-07T19:42:19.662Z,10.05
2023-01-07T19:44:47.645Z,10.07
2023-01-07T19:47:17.198Z,10.09
2023-01-07T19:49:45.588Z,9.99
2023-01-07T19:52:13.766Z,10.04
2023-01-07T19:54:42.281Z,10.15
2023-01-07T19:57:11.939Z,10.17
2023-01-07T19:59:39.927Z,10.10
2023-01-07T20:02:08.163Z,10.09
2023-01-07T20:04:36.471Z,9.92
2023-01-07T20:07:04.616Z,9.48
2023-01-07T20:09:32.927Z,9.71
2023-01-07T20:12:01.096Z,9.73
2023-01-07T20:14:30.521Z,9.44
2023-01-07T20:16:58.662Z,9.52
2023-01-07T20:19:27.258Z,9.68
2023-01-07T20:21:55.217Z,9.83
2023-01-07T20:24:23.199Z,9.67
2023-01-07T20:26:53.189Z,9.49
2023-01-07T20:29:22.529Z,9.56
2023-01-07T20:31:51.926Z,9.77
2023-01-07T20:34:20.048Z,9.97
2023-01-07T20:36:48.020Z,10.04
2023-01-07T20:39:16.296Z,10.04
2023-01-07T20:41:44.527Z,9.96
2023-01-07T20:44:13.331Z,9.70
2023-01-07T20:46:41.895Z,9.67
2023-01-07T20:49:12.552Z,9.79
2023-01-07T20:51:40.853Z,9.87
2023-01-07T20:54:09.129Z,9.85
2023-01-07T20:56:37.321Z,9.87
2023-01-07T20:59:05.568Z,9.86
2023-01-07T21:01:33.953Z,9.93
2023-01-07T21:04:03.041Z,9.80
2023-01-07T21:06:32.737Z,9.42
2023-01-07T21:09:01.137Z,9.58
2023-01-07T21:11:29.177Z,9.71
2023-01-07T21:13:57.152Z,9.80
2023-01-07T21:16:26.063Z,9.81
2023-01-07T21:18:54.320Z,9.94
2023-01-07T21:21:25.319Z,10.00
2023-01-07T21:23:55.547Z,10.05
2023-01-07T21:26:26.101Z,9.94
2023-01-07T21:28:56.049Z,9.48
2023-01-07T21:31:25.192Z,9.46
2023-01-07T21:33:56.497Z,9.79
2023-01-07T21:36:25.935Z,9.79
2023-01-07T21:38:56.793Z,9.50
2023-01-07T21:41:25.647Z,9.40
2023-01-07T21:43:53.713Z,9.08
2023-01-07T21:46:22.603Z,8.88
2023-01-07T21:48:51.868Z,9.16
2023-01-07T21:51:22.221Z,9.40
2023-01-07T21:53:52.150Z,9.50
2023-01-07T21:56:21.740Z,9.60
2023-01-07T21:58:50.633Z,9.55
2023-01-07T22:01:20.111Z,9.59
2023-01-07T22:03:49.902Z,9.65
2023-01-07T22:06:20.819Z,9.77
2023-01-07T22:08:49.217Z,9.83
2023-01-07T22:11:18.982Z,9.82
2023-01-07T22:13:52.920Z,9.79
2023-01-07T22:16:21.474Z,9.79
2023-01-07T22:18:49.716Z,9.86
2023-01-07T22:21:18.667Z,9.92
2023-01-07T22:23:47.569Z,9.93
2023-01-07T22:26:17.658Z,9.93
2023-01-07T22:28:50.012Z,9.99
2023-01-07T22:31:22.303Z,10.02
2023-01-07T22:33:50.428Z,10.02
2023-01-07T22:36:23.181Z,9.94
2023-01-07T22:38:52.808Z,9.79
2023-01-07T22:41:20.999Z,9.85
2023-01-07T22:43:49.092Z,9.93
2023-01-07T22:46:22.908Z,9.94
2023-01-07T22:48:51.213Z,9.89
2023-01-07T22:51:25.014Z,9.93
2023-01-07T22:53:56.278Z,9.91
2023-01-07T22:56:24.699Z,9.93
2023-01-07T22:58:52.773Z,9.87
2023-01-07T23:01:22.512Z,9.91
2023-01-07T23:03:50.516Z,9.82
2023-01-07T23:06:18.720Z,9.75
2023-01-07T23:08:46.783Z,9.81
2023-01-07T23:11:35.289Z,9.85
2023-01-07T23:14:03.865Z,9.91
2023-01-07T23:16:33.524Z,9.99
2023-01-07T23:19:01.664Z,9.93
2023-01-07T23:21:31.509Z,9.60
2023-01-07T23:23:59.883Z,9.62
2023-01-07T23:26:27.991Z,9.76
2023-01-07T23:28:55.975Z,9.71
2023-01-07T23:31:24.070Z,9.75
2023-01-07T23:33:53.663Z,9.75
2023-01-07T23:36:21.627Z,9.89
2023-01-07T23:38:49.623Z,9.88
2023-01-07T23:41:18.280Z,9.91
2023-01-07T23:43:46.507Z,9.94
2023-01-07T23:46:14.599Z,9.93
2023-01-07T23:48:42.919Z,9.57
2023-01-07T23:51:14.503Z,9.72
2023-01-07T23:53:42.648Z,9.81
2023-01-07T23:56:10.953Z,9.89
2023-01-07T23:58:39.929Z,9.95
